sensor_id;sensor_type;location;lat;lon;timestamp;P1;durP1;ratioP1;P2;durP2;ratioP2
38785;SDS011;24535;45.508;12.252;2023-02-13T00:01:51;97.93;;;70.30;;
38785;SDS011;24535;45.508;12.252;2023-02-13T00:04:17;109.65;;;73.32;;
38785;SDS011;24535;45.508;12.252;2023-02-13T00:06:43;97.30;;;69.35;;
38785;SDS011;24535;45.508;12.252;2023-02-13T00:09:08;99.07;;;70.22;;
38785;SDS011;24535;45.508;12.252;2023-02-13T00:11:35;105.20;;;71.22;;
38785;SDS011;24535;45.508;12.252;2023-02-13T00:14:01;100.85;;;70.57;;
38785;SDS011;24535;45.508;12.252;2023-02-13T00:16:26;107.38;;;73.80;;
38785;SDS011;24535;45.508;12.252;2023-02-13T00:18:52;108.85;;;73.25;;
38785;SDS011;24535;45.508;12.252;2023-02-13T00:21:17;103.57;;;72.25;;
38785;SDS011;24535;45.508;12.252;2023-02-13T00:23:43;97.20;;;69.10;;
38785;SDS011;24535;45.508;12.252;2023-02-13T00:26:12;93.03;;;68.97;;
38785;SDS011;24535;45.508;12.252;2023-02-13T00:28:40;104.30;;;71.40;;
38785;SDS011;24535;45.508;12.252;2023-02-13T00:31:10;103.90;;;72.75;;
38785;SDS011;24535;45.508;12.252;2023-02-13T00:33:38;100.47;;;71.60;;
38785;SDS011;24535;45.508;12.252;2023-02-13T00:36:14;106.15;;;74.03;;
38785;SDS011;24535;45.508;12.252;2023-02-13T00:38:42;100.90;;;71.07;;
38785;SDS011;24535;45.508;12.252;2023-02-13T00:41:09;94.55;;;70.03;;
38785;SDS011;24535;45.508;12.252;2023-02-13T00:43:35;104.82;;;73.43;;
38785;SDS011;24535;45.508;12.252;2023-02-13T00:46:03;104.55;;;71.97;;
38785;SDS011;24535;45.508;12.252;2023-02-13T00:48:30;101.63;;;71.18;;
38785;SDS011;24535;45.508;12.252;2023-02-13T00:50:57;96.55;;;70.70;;
38785;SDS011;24535;45.508;12.252;2023-02-13T00:53:23;101.28;;;70.32;;
38785;SDS011;24535;45.508;12.252;2023-02-13T00:55:50;101.80;;;70.95;;
38785;SDS011;24535;45.508;12.252;2023-02-13T00:58:16;96.50;;;67.47;;
38785;SDS011;24535;45.508;12.252;2023-02-13T01:00:43;99.13;;;69.90;;
38785;SDS011;24535;45.508;12.252;2023-02-13T01:03:11;98.60;;;70.00;;
38785;SDS011;24535;45.508;12.252;2023-02-13T01:05:37;98.63;;;70.57;;
38785;SDS011;24535;45.508;12.252;2023-02-13T01:08:03;96.53;;;68.57;;
38785;SDS011;24535;45.508;12.252;2023-02-13T01:10:29;97.70;;;71.32;;
38785;SDS011;24535;45.508;12.252;2023-02-13T01:12:55;98.88;;;67.85;;
38785;SDS011;24535;45.508;12.252;2023-02-13T01:15:20;103.45;;;70.38;;
38785;SDS011;24535;45.508;12.252;2023-02-13T01:17:46;98.32;;;69.20;;
38785;SDS011;24535;45.508;12.252;2023-02-13T01:20:11;87.95;;;65.07;;
38785;SDS011;24535;45.508;12.252;2023-02-13T01:22:40;86.68;;;65.55;;
38785;SDS011;24535;45.508;12.252;2023-02-13T01:25:08;86.93;;;65.10;;
38785;SDS011;24535;45.508;12.252;2023-02-13T01:27:34;95.97;;;68.97;;
38785;SDS011;24535;45.508;12.252;2023-02-13T01:30:02;94.82;;;68.03;;
38785;SDS011;24535;45.508;12.252;2023-02-13T01:32:32;99.07;;;66.93;;
38785;SDS011;24535;45.508;12.252;2023-02-13T01:34:57;90.53;;;66.07;;
38785;SDS011;24535;45.508;12.252;2023-02-13T01:37:23;94.88;;;69.05;;
38785;SDS011;24535;45.508;12.252;2023-02-13T01:39:48;92.63;;;66.72;;
38785;SDS011;24535;45.508;12.252;2023-02-13T01:42:15;88.43;;;65.82;;
38785;SDS011;24535;45.508;12.252;2023-02-13T01:44:56;95.82;;;68.70;;
38785;SDS011;24535;45.508;12.252;2023-02-13T01:47:40;95.93;;;66.70;;
38785;SDS011;24535;45.508;12.252;2023-02-13T01:50:14;91.35;;;67.68;;
38785;SDS011;24535;45.508;12.252;2023-02-13T01:52:53;90.95;;;67.40;;
38785;SDS011;24535;45.508;12.252;2023-02-13T01:55:24;86.35;;;67.57;;
38785;SDS011;24535;45.508;12.252;2023-02-13T01:57:55;91.70;;;69.32;;
38785;SDS011;24535;45.508;12.252;2023-02-13T02:00:26;90.22;;;65.95;;
38785;SDS011;24535;45.508;12.252;2023-02-13T02:02:54;91.05;;;67.32;;
38785;SDS011;24535;45.508;12.252;2023-02-13T02:05:26;91.50;;;66.90;;
38785;SDS011;24535;45.508;12.252;2023-02-13T02:07:57;95.00;;;65.78;;
38785;SDS011;24535;45.508;12.252;2023-02-13T02:10:25;86.18;;;64.22;;
38785;SDS011;24535;45.508;12.252;2023-02-13T02:12:57;87.70;;;65.68;;
38785;SDS011;24535;45.508;12.252;2023-02-13T02:15:29;97.47;;;67.20;;
38785;SDS011;24535;45.508;12.252;2023-02-13T02:17:55;91.35;;;64.28;;
38785;SDS011;24535;45.508;12.252;2023-02-13T02:23:25;86.28;;;63.95;;
38785;SDS011;24535;45.508;12.252;2023-02-13T02:34:36;83.80;;;64.57;;
38785;SDS011;24535;45.508;12.252;2023-02-13T02:48:06;83.95;;;61.97;;
38785;SDS011;24535;45.508;12.252;2023-02-13T02:54:08;79.50;;;62.03;;
38785;SDS011;24535;45.508;12.252;2023-02-13T02:56:59;92.60;;;61.33;;
38785;SDS011;24535;45.508;12.252;2023-02-13T02:59:31;83.65;;;61.45;;
38785;SDS011;24535;45.508;12.252;2023-02-13T03:02:18;86.28;;;59.65;;
38785;SDS011;24535;45.508;12.252;2023-02-13T03:05:07;76.18;;;60.47;;
38785;SDS011;24535;45.508;12.252;2023-02-13T03:08:02;76.30;;;59.10;;
38785;SDS011;24535;45.508;12.252;2023-02-13T03:10:30;82.05;;;61.13;;
38785;SDS011;24535;45.508;12.252;2023-02-13T03:13:27;82.30;;;59.05;;
38785;SDS011;24535;45.508;12.252;2023-02-13T03:15:59;80.00;;;58.63;;
38785;SDS011;24535;45.508;12.252;2023-02-13T03:18:49;75.97;;;56.45;;
38785;SDS011;24535;45.508;12.252;2023-02-13T03:27:15;71.22;;;54.25;;
38785;SDS011;24535;45.508;12.252;2023-02-13T03:38:45;70.35;;;52.15;;
38785;SDS011;24535;45.508;12.252;2023-02-13T03:41:18;65.75;;;50.53;;
38785;SDS011;24535;45.508;12.252;2023-02-13T03:43:55;67.78;;;52.70;;
38785;SDS011;24535;45.508;12.252;2023-02-13T03:46:29;66.95;;;49.65;;
38785;SDS011;24535;45.508;12.252;2023-02-13T03:48:58;70.82;;;52.17;;
38785;SDS011;24535;45.508;12.252;2023-02-13T03:52:05;72.95;;;52.47;;
38785;SDS011;24535;45.508;12.252;2023-02-13T03:57:28;67.38;;;51.53;;
38785;SDS011;24535;45.508;12.252;2023-02-13T04:00:15;76.25;;;55.47;;
38785;SDS011;24535;45.508;12.252;2023-02-13T04:03:00;80.47;;;57.53;;
38785;SDS011;24535;45.508;12.252;2023-02-13T04:05:36;73.00;;;56.13;;
38785;SDS011;24535;45.508;12.252;2023-02-13T04:08:06;76.50;;;55.13;;
38785;SDS011;24535;45.508;12.252;2023-02-13T04:10:33;73.10;;;55.22;;
38785;SDS011;24535;45.508;12.252;2023-02-13T04:15:34;76.20;;;54.10;;
38785;SDS011;24535;45.508;12.252;2023-02-13T04:18:14;83.82;;;55.30;;
38785;SDS011;24535;45.508;12.252;2023-02-13T04:20:43;79.63;;;57.17;;
38785;SDS011;24535;45.508;12.252;2023-02-13T04:23:09;76.78;;;56.85;;
38785;SDS011;24535;45.508;12.252;2023-02-13T04:25:36;77.28;;;58.80;;
38785;SDS011;24535;45.508;12.252;2023-02-13T04:28:05;77.15;;;58.72;;
38785;SDS011;24535;45.508;12.252;2023-02-13T04:30:30;79.00;;;57.58;;
38785;SDS011;24535;45.508;12.252;2023-02-13T04:32:56;75.72;;;57.40;;
38785;SDS011;24535;45.508;12.252;2023-02-13T04:35:21;85.93;;;59.65;;
38785;SDS011;24535;45.508;12.252;2023-02-13T04:37:47;77.93;;;55.85;;
38785;SDS011;24535;45.508;12.252;2023-02-13T04:40:14;81.35;;;57.28;;
38785;SDS011;24535;45.508;12.252;2023-02-13T04:42:40;78.82;;;55.75;;
38785;SDS011;24535;45.508;12.252;2023-02-13T04:45:05;78.53;;;55.40;;
38785;SDS011;24535;45.508;12.252;2023-02-13T04:47:31;78.13;;;57.50;;
38785;SDS011;24535;45.508;12.252;2023-02-13T04:49:56;81.10;;;58.70;;
38785;SDS011;24535;45.508;12.252;2023-02-13T04:52:22;78.53;;;56.28;;
38785;SDS011;24535;45.508;12.252;2023-02-13T04:54:47;76.10;;;55.28;;
38785;SDS011;24535;45.508;12.252;2023-02-13T04:57:13;77.28;;;55.17;;
38785;SDS011;24535;45.508;12.252;2023-02-13T04:59:39;76.20;;;54.83;;
38785;SDS011;24535;45.508;12.252;2023-02-13T05:02:04;75.57;;;55.53;;
38785;SDS011;24535;45.508;12.252;2023-02-13T05:04:30;69.32;;;51.65;;
38785;SDS011;24535;45.508;12.252;2023-02-13T05:06:56;73.53;;;53.83;;
38785;SDS011;24535;45.508;12.252;2023-02-13T05:09:21;67.10;;;51.53;;
38785;SDS011;24535;45.508;12.252;2023-02-13T05:11:49;70.30;;;52.15;;
38785;SDS011;24535;45.508;12.252;2023-02-13T05:14:15;68.63;;;51.30;;
38785;SDS011;24535;45.508;12.252;2023-02-13T05:16:41;72.03;;;52.08;;
38785;SDS011;24535;45.508;12.252;2023-02-13T05:19:06;67.50;;;48.80;;
38785;SDS011;24535;45.508;12.252;2023-02-13T05:21:32;66.82;;;49.35;;
38785;SDS011;24535;45.508;12.252;2023-02-13T05:24:15;66.38;;;47.55;;
38785;SDS011;24535;45.508;12.252;2023-02-13T05:26:41;61.15;;;48.03;;
38785;SDS011;24535;45.508;12.252;2023-02-13T05:29:07;64.38;;;48.00;;
38785;SDS011;24535;45.508;12.252;2023-02-13T05:31:46;58.58;;;46.10;;
38785;SDS011;24535;45.508;12.252;2023-02-13T05:34:16;59.92;;;45.72;;
38785;SDS011;24535;45.508;12.252;2023-02-13T05:36:42;56.00;;;42.72;;
38785;SDS011;24535;45.508;12.252;2023-02-13T05:39:07;56.50;;;42.15;;
38785;SDS011;24535;45.508;12.252;2023-02-13T05:41:33;59.33;;;43.88;;
38785;SDS011;24535;45.508;12.252;2023-02-13T05:43:58;64.35;;;46.40;;
38785;SDS011;24535;45.508;12.252;2023-02-13T05:46:24;58.20;;;43.80;;
38785;SDS011;24535;45.508;12.252;2023-02-13T05:48:50;58.72;;;43.17;;
38785;SDS011;24535;45.508;12.252;2023-02-13T05:51:16;58.35;;;43.67;;
38785;SDS011;24535;45.508;12.252;2023-02-13T05:53:41;58.40;;;42.35;;
38785;SDS011;24535;45.508;12.252;2023-02-13T05:56:12;56.97;;;43.97;;
38785;SDS011;24535;45.508;12.252;2023-02-13T05:58:38;59.45;;;44.22;;
38785;SDS011;24535;45.508;12.252;2023-02-13T06:01:03;56.08;;;41.35;;
38785;SDS011;24535;45.508;12.252;2023-02-13T06:03:29;54.05;;;41.45;;
38785;SDS011;24535;45.508;12.252;2023-02-13T06:05:56;58.60;;;40.60;;
38785;SDS011;24535;45.508;12.252;2023-02-13T06:08:23;54.78;;;40.80;;
38785;SDS011;24535;45.508;12.252;2023-02-13T06:10:49;49.53;;;39.00;;
38785;SDS011;24535;45.508;12.252;2023-02-13T06:13:15;52.10;;;41.15;;
38785;SDS011;24535;45.508;12.252;2023-02-13T06:15:41;50.03;;;39.45;;
38785;SDS011;24535;45.508;12.252;2023-02-13T06:18:06;49.58;;;39.95;;
38785;SDS011;24535;45.508;12.252;2023-02-13T06:20:32;48.83;;;37.63;;
38785;SDS011;24535;45.508;12.252;2023-02-13T06:22:58;50.20;;;38.78;;
38785;SDS011;24535;45.508;12.252;2023-02-13T06:25:24;48.58;;;37.85;;
38785;SDS011;24535;45.508;12.252;2023-02-13T06:27:49;51.33;;;40.05;;
38785;SDS011;24535;45.508;12.252;2023-02-13T06:30:15;50.70;;;38.70;;
38785;SDS011;24535;45.508;12.252;2023-02-13T06:32:41;51.00;;;39.08;;
38785;SDS011;24535;45.508;12.252;2023-02-13T06:35:07;48.72;;;38.42;;
38785;SDS011;24535;45.508;12.252;2023-02-13T06:37:33;46.38;;;36.33;;
38785;SDS011;24535;45.508;12.252;2023-02-13T06:39:59;47.67;;;38.33;;
38785;SDS011;24535;45.508;12.252;2023-02-13T06:42:25;48.83;;;37.22;;
38785;SDS011;24535;45.508;12.252;2023-02-13T06:44:50;53.45;;;36.85;;
38785;SDS011;24535;45.508;12.252;2023-02-13T06:47:16;50.15;;;36.75;;
38785;SDS011;24535;45.508;12.252;2023-02-13T06:49:41;49.38;;;37.42;;
38785;SDS011;24535;45.508;12.252;2023-02-13T06:52:07;47.20;;;37.15;;
38785;SDS011;24535;45.508;12.252;2023-02-13T06:54:32;48.40;;;37.17;;
38785;SDS011;24535;45.508;12.252;2023-02-13T06:56:58;52.45;;;38.38;;
38785;SDS011;24535;45.508;12.252;2023-02-13T06:59:23;51.40;;;38.42;;
38785;SDS011;24535;45.508;12.252;2023-02-13T07:01:49;52.53;;;38.38;;
38785;SDS011;24535;45.508;12.252;2023-02-13T07:04:14;45.65;;;36.25;;
38785;SDS011;24535;45.508;12.252;2023-02-13T07:06:40;50.03;;;36.05;;
38785;SDS011;24535;45.508;12.252;2023-02-13T07:09:05;48.83;;;37.30;;
38785;SDS011;24535;45.508;12.252;2023-02-13T07:11:37;45.90;;;36.13;;
38785;SDS011;24535;45.508;12.252;2023-02-13T07:14:05;49.47;;;35.50;;
38785;SDS011;24535;45.508;12.252;2023-02-13T07:16:31;45.08;;;34.13;;
38785;SDS011;24535;45.508;12.252;2023-02-13T07:18:57;45.38;;;34.35;;
38785;SDS011;24535;45.508;12.252;2023-02-13T07:21:22;47.03;;;34.72;;
38785;SDS011;24535;45.508;12.252;2023-02-13T07:23:48;41.78;;;32.55;;
38785;SDS011;24535;45.508;12.252;2023-02-13T07:26:13;40.45;;;29.67;;
38785;SDS011;24535;45.508;12.252;2023-02-13T07:28:40;38.90;;;30.30;;
38785;SDS011;24535;45.508;12.252;2023-02-13T07:31:05;44.30;;;29.45;;
38785;SDS011;24535;45.508;12.252;2023-02-13T07:33:34;42.60;;;30.70;;
38785;SDS011;24535;45.508;12.252;2023-02-13T07:36:00;40.50;;;30.88;;
38785;SDS011;24535;45.508;12.252;2023-02-13T07:38:28;41.83;;;31.13;;
38785;SDS011;24535;45.508;12.252;2023-02-13T07:40:58;40.25;;;30.45;;
38785;SDS011;24535;45.508;12.252;2023-02-13T07:43:24;35.20;;;28.05;;
38785;SDS011;24535;45.508;12.252;2023-02-13T07:45:52;35.58;;;26.17;;
38785;SDS011;24535;45.508;12.252;2023-02-13T07:48:22;41.50;;;28.23;;
38785;SDS011;24535;45.508;12.252;2023-02-13T07:50:52;35.15;;;26.88;;
38785;SDS011;24535;45.508;12.252;2023-02-13T07:53:18;39.55;;;26.85;;
38785;SDS011;24535;45.508;12.252;2023-02-13T07:55:44;35.97;;;27.00;;
38785;SDS011;24535;45.508;12.252;2023-02-13T07:58:09;38.40;;;27.98;;
38785;SDS011;24535;45.508;12.252;2023-02-13T08:00:34;37.70;;;27.40;;
38785;SDS011;24535;45.508;12.252;2023-02-13T08:03:00;35.13;;;27.67;;
38785;SDS011;24535;45.508;12.252;2023-02-13T08:05:27;44.83;;;29.02;;
38785;SDS011;24535;45.508;12.252;2023-02-13T08:07:53;36.28;;;26.55;;
38785;SDS011;24535;45.508;12.252;2023-02-13T08:10:19;35.45;;;26.77;;
38785;SDS011;24535;45.508;12.252;2023-02-13T08:13:03;40.30;;;28.05;;
38785;SDS011;24535;45.508;12.252;2023-02-13T08:15:30;39.20;;;25.38;;
38785;SDS011;24535;45.508;12.252;2023-02-13T08:17:56;33.63;;;25.85;;
38785;SDS011;24535;45.508;12.252;2023-02-13T08:20:21;33.08;;;25.08;;
38785;SDS011;24535;45.508;12.252;2023-02-13T08:22:48;38.40;;;25.02;;
38785;SDS011;24535;45.508;12.252;2023-02-13T08:25:13;34.33;;;25.08;;
38785;SDS011;24535;45.508;12.252;2023-02-13T08:27:39;34.22;;;26.02;;
38785;SDS011;24535;45.508;12.252;2023-02-13T08:30:04;36.28;;;24.88;;
38785;SDS011;24535;45.508;12.252;2023-02-13T08:32:30;30.27;;;21.92;;
38785;SDS011;24535;45.508;12.252;2023-02-13T08:34:56;32.80;;;23.95;;
38785;SDS011;24535;45.508;12.252;2023-02-13T08:37:21;30.17;;;21.60;;
38785;SDS011;24535;45.508;12.252;2023-02-13T08:39:47;31.17;;;23.58;;
38785;SDS011;24535;45.508;12.252;2023-02-13T08:42:12;25.27;;;20.42;;
38785;SDS011;24535;45.508;12.252;2023-02-13T08:44:38;29.35;;;21.23;;
38785;SDS011;24535;45.508;12.252;2023-02-13T08:47:05;29.02;;;22.65;;
38785;SDS011;24535;45.508;12.252;2023-02-13T08:49:31;32.83;;;22.38;;
38785;SDS011;24535;45.508;12.252;2023-02-13T08:51:58;29.40;;;23.02;;
38785;SDS011;24535;45.508;12.252;2023-02-13T08:54:25;25.73;;;18.23;;
38785;SDS011;24535;45.508;12.252;2023-02-13T08:56:53;26.48;;;19.58;;
38785;SDS011;24535;45.508;12.252;2023-02-13T08:59:19;25.77;;;19.85;;
38785;SDS011;24535;45.508;12.252;2023-02-13T09:01:45;21.88;;;17.63;;
38785;SDS011;24535;45.508;12.252;2023-02-13T09:04:13;25.25;;;17.75;;
38785;SDS011;24535;45.508;12.252;2023-02-13T09:06:42;27.10;;;19.63;;
38785;SDS011;24535;45.508;12.252;2023-02-13T09:09:08;24.48;;;17.38;;
38785;SDS011;24535;45.508;12.252;2023-02-13T09:11:33;22.67;;;17.42;;
38785;SDS011;24535;45.508;12.252;2023-02-13T09:13:59;21.55;;;16.73;;
38785;SDS011;24535;45.508;12.252;2023-02-13T09:16:24;22.50;;;17.55;;
38785;SDS011;24535;45.508;12.252;2023-02-13T09:18:50;24.20;;;17.17;;
38785;SDS011;24535;45.508;12.252;2023-02-13T09:21:16;22.35;;;17.52;;
38785;SDS011;24535;45.508;12.252;2023-02-13T09:23:43;21.17;;;15.30;;
38785;SDS011;24535;45.508;12.252;2023-02-13T09:26:10;23.02;;;16.50;;
38785;SDS011;24535;45.508;12.252;2023-02-13T09:28:36;21.75;;;16.50;;
38785;SDS011;24535;45.508;12.252;2023-02-13T09:31:06;19.02;;;15.23;;
38785;SDS011;24535;45.508;12.252;2023-02-13T09:33:31;19.52;;;13.80;;
38785;SDS011;24535;45.508;12.252;2023-02-13T09:35:57;17.20;;;13.93;;
38785;SDS011;24535;45.508;12.252;2023-02-13T09:38:22;19.42;;;14.48;;
38785;SDS011;24535;45.508;12.252;2023-02-13T09:40:54;18.02;;;13.43;;
38785;SDS011;24535;45.508;12.252;2023-02-13T09:43:28;16.55;;;13.18;;
38785;SDS011;24535;45.508;12.252;2023-02-13T09:45:57;19.63;;;14.85;;
38785;SDS011;24535;45.508;12.252;2023-02-13T09:48:30;19.02;;;14.02;;
38785;SDS011;24535;45.508;12.252;2023-02-13T09:50:58;16.70;;;13.50;;
38785;SDS011;24535;45.508;12.252;2023-02-13T09:53:25;19.52;;;13.20;;
38785;SDS011;24535;45.508;12.252;2023-02-13T09:56:04;16.48;;;12.52;;
38785;SDS011;24535;45.508;12.252;2023-02-13T09:58:41;18.10;;;12.30;;
38785;SDS011;24535;45.508;12.252;2023-02-13T10:01:25;17.92;;;13.82;;
38785;SDS011;24535;45.508;12.252;2023-02-13T10:03:59;16.77;;;12.93;;
38785;SDS011;24535;45.508;12.252;2023-02-13T10:06:49;17.27;;;12.10;;
38785;SDS011;24535;45.508;12.252;2023-02-13T10:10:24;17.15;;;12.27;;
38785;SDS011;24535;45.508;12.252;2023-02-13T10:12:44;15.10;;;11.05;;
38785;SDS011;24535;45.508;12.252;2023-02-13T10:15:23;18.80;;;12.48;;
38785;SDS011;24535;45.508;12.252;2023-02-13T10:18:01;16.70;;;11.40;;
38785;SDS011;24535;45.508;12.252;2023-02-13T10:20:37;12.85;;;10.30;;
38785;SDS011;24535;45.508;12.252;2023-02-13T10:25:57;20.05;;;12.30;;
38785;SDS011;24535;45.508;12.252;2023-02-13T10:31:10;14.77;;;11.10;;
38785;SDS011;24535;45.508;12.252;2023-02-13T10:33:57;13.50;;;10.27;;
38785;SDS011;24535;45.508;12.252;2023-02-13T10:36:28;13.38;;;10.70;;
38785;SDS011;24535;45.508;12.252;2023-02-13T10:38:59;18.13;;;10.40;;
38785;SDS011;24535;45.508;12.252;2023-02-13T10:41:52;13.50;;;10.60;;
38785;SDS011;24535;45.508;12.252;2023-02-13T11:01:02;11.77;;;8.88;;
38785;SDS011;24535;45.508;12.252;2023-02-13T11:03:41;11.55;;;9.63;;
38785;SDS011;24535;45.508;12.252;2023-02-13T11:06:07;15.07;;;10.50;;
38785;SDS011;24535;45.508;12.252;2023-02-13T11:08:42;13.70;;;9.15;;
38785;SDS011;24535;45.508;12.252;2023-02-13T11:16:43;12.73;;;10.20;;
38785;SDS011;24535;45.508;12.252;2023-02-13T11:19:23;13.80;;;10.20;;
38785;SDS011;24535;45.508;12.252;2023-02-13T11:22:12;16.20;;;11.07;;
38785;SDS011;24535;45.508;12.252;2023-02-13T11:24:40;15.23;;;10.27;;
38785;SDS011;24535;45.508;12.252;2023-02-13T11:27:15;12.23;;;9.13;;
38785;SDS011;24535;45.508;12.252;2023-02-13T11:29:52;11.40;;;8.88;;
38785;SDS011;24535;45.508;12.252;2023-02-13T11:32:24;13.15;;;9.57;;
38785;SDS011;24535;45.508;12.252;2023-02-13T11:34:56;13.93;;;9.65;;
38785;SDS011;24535;45.508;12.252;2023-02-13T11:37:28;10.68;;;8.35;;
38785;SDS011;24535;45.508;12.252;2023-02-13T11:39:57;12.65;;;9.32;;
38785;SDS011;24535;45.508;12.252;2023-02-13T11:44:56;12.50;;;8.75;;
38785;SDS011;24535;45.508;12.252;2023-02-13T11:50:05;14.45;;;9.68;;
38785;SDS011;24535;45.508;12.252;2023-02-13T11:52:44;13.43;;;9.40;;
38785;SDS011;24535;45.508;12.252;2023-02-13T11:55:37;10.25;;;8.20;;
38785;SDS011;24535;45.508;12.252;2023-02-13T12:00:35;11.60;;;9.40;;
38785;SDS011;24535;45.508;12.252;2023-02-13T12:03:37;15.23;;;8.90;;
38785;SDS011;24535;45.508;12.252;2023-02-13T12:05:59;12.10;;;9.43;;
38785;SDS011;24535;45.508;12.252;2023-02-13T12:08:28;11.20;;;9.05;;
38785;SDS011;24535;45.508;12.252;2023-02-13T12:10:55;13.77;;;9.68;;
38785;SDS011;24535;45.508;12.252;2023-02-13T12:16:03;14.57;;;9.98;;
38785;SDS011;24535;45.508;12.252;2023-02-13T12:18:42;8.73;;;7.83;;
38785;SDS011;24535;45.508;12.252;2023-02-13T12:31:18;14.10;;;9.63;;
38785;SDS011;24535;45.508;12.252;2023-02-13T12:37:23;11.00;;;8.38;;
38785;SDS011;24535;45.508;12.252;2023-02-13T12:45:50;11.27;;;9.52;;
38785;SDS011;24535;45.508;12.252;2023-02-13T12:48:46;14.00;;;10.18;;
38785;SDS011;24535;45.508;12.252;2023-02-13T12:51:19;12.05;;;9.30;;
38785;SDS011;24535;45.508;12.252;2023-02-13T12:56:58;12.75;;;9.95;;
38785;SDS011;24535;45.508;12.252;2023-02-13T13:08:16;21.35;;;10.90;;
38785;SDS011;24535;45.508;12.252;2023-02-13T13:10:52;11.25;;;9.80;;
38785;SDS011;24535;45.508;12.252;2023-02-13T13:21:50;11.68;;;8.15;;
38785;SDS011;24535;45.508;12.252;2023-02-13T13:24:25;10.05;;;8.35;;
38785;SDS011;24535;45.508;12.252;2023-02-13T13:26:52;9.18;;;7.68;;
38785;SDS011;24535;45.508;12.252;2023-02-13T13:29:22;12.30;;;9.32;;
38785;SDS011;24535;45.508;12.252;2023-02-13T13:32:01;13.63;;;10.02;;
38785;SDS011;24535;45.508;12.252;2023-02-13T13:34:31;14.57;;;9.20;;
38785;SDS011;24535;45.508;12.252;2023-02-13T13:44:42;19.13;;;12.20;;
38785;SDS011;24535;45.508;12.252;2023-02-13T13:47:30;18.75;;;12.18;;
38785;SDS011;24535;45.508;12.252;2023-02-13T13:50:04;18.42;;;11.65;;
38785;SDS011;24535;45.508;12.252;2023-02-13T13:52:36;24.35;;;13.45;;
38785;SDS011;24535;45.508;12.252;2023-02-13T13:55:02;15.35;;;12.88;;
38785;SDS011;24535;45.508;12.252;2023-02-13T14:00:02;15.87;;;11.93;;
38785;SDS011;24535;45.508;12.252;2023-02-13T14:03:18;17.70;;;12.80;;
38785;SDS011;24535;45.508;12.252;2023-02-13T14:06:07;15.80;;;11.65;;
38785;SDS011;24535;45.508;12.252;2023-02-13T14:16:52;19.50;;;12.25;;
38785;SDS011;24535;45.508;12.252;2023-02-13T14:19:28;17.05;;;12.15;;
38785;SDS011;24535;45.508;12.252;2023-02-13T14:27:30;17.02;;;10.63;;
38785;SDS011;24535;45.508;12.252;2023-02-13T14:30:01;13.93;;;10.93;;
38785;SDS011;24535;45.508;12.252;2023-02-13T14:32:33;14.90;;;10.88;;
38785;SDS011;24535;45.508;12.252;2023-02-13T14:35:15;16.73;;;11.55;;
38785;SDS011;24535;45.508;12.252;2023-02-13T14:37:52;16.73;;;11.60;;
38785;SDS011;24535;45.508;12.252;2023-02-13T14:43:17;14.05;;;10.10;;
38785;SDS011;24535;45.508;12.252;2023-02-13T14:46:07;15.23;;;11.23;;
38785;SDS011;24535;45.508;12.252;2023-02-13T14:48:35;18.83;;;11.30;;
38785;SDS011;24535;45.508;12.252;2023-02-13T14:51:06;12.52;;;10.40;;
38785;SDS011;24535;45.508;12.252;2023-02-13T14:53:48;15.95;;;11.00;;
38785;SDS011;24535;45.508;12.252;2023-02-13T14:56:19;15.02;;;11.57;;
38785;SDS011;24535;45.508;12.252;2023-02-13T14:58:51;13.07;;;10.07;;
38785;SDS011;24535;45.508;12.252;2023-02-13T15:01:41;16.98;;;10.82;;
38785;SDS011;24535;45.508;12.252;2023-02-13T15:04:16;11.48;;;8.82;;
38785;SDS011;24535;45.508;12.252;2023-02-13T15:07:05;12.85;;;9.05;;
38785;SDS011;24535;45.508;12.252;2023-02-13T15:09:38;15.30;;;10.75;;
38785;SDS011;24535;45.508;12.252;2023-02-13T15:14:54;14.25;;;10.55;;
38785;SDS011;24535;45.508;12.252;2023-02-13T15:19:52;16.38;;;9.10;;
38785;SDS011;24535;45.508;12.252;2023-02-13T15:22:20;12.52;;;9.52;;
38785;SDS011;24535;45.508;12.252;2023-02-13T15:24:55;13.90;;;9.63;;
38785;SDS011;24535;45.508;12.252;2023-02-13T15:27:29;23.65;;;11.32;;
38785;SDS011;24535;45.508;12.252;2023-02-13T15:29:58;10.93;;;9.18;;
38785;SDS011;24535;45.508;12.252;2023-02-13T15:32:27;14.57;;;9.90;;
38785;SDS011;24535;45.508;12.252;2023-02-13T15:34:55;12.43;;;10.02;;
38785;SDS011;24535;45.508;12.252;2023-02-13T15:37:22;13.25;;;9.88;;
38785;SDS011;24535;45.508;12.252;2023-02-13T15:39:49;12.10;;;8.77;;
38785;SDS011;24535;45.508;12.252;2023-02-13T15:42:14;17.25;;;11.30;;
38785;SDS011;24535;45.508;12.252;2023-02-13T15:44:40;14.15;;;9.75;;
38785;SDS011;24535;45.508;12.252;2023-02-13T15:49:55;20.08;;;9.68;;
38785;SDS011;24535;45.508;12.252;2023-02-13T15:52:40;16.02;;;10.38;;
38785;SDS011;24535;45.508;12.252;2023-02-13T15:55:13;14.90;;;9.18;;
38785;SDS011;24535;45.508;12.252;2023-02-13T15:57:53;11.32;;;8.43;;
38785;SDS011;24535;45.508;12.252;2023-02-13T16:00:25;14.13;;;9.53;;
38785;SDS011;24535;45.508;12.252;2023-02-13T16:02:53;11.63;;;9.23;;
38785;SDS011;24535;45.508;12.252;2023-02-13T16:05:22;15.32;;;9.65;;
38785;SDS011;24535;45.508;12.252;2023-02-13T16:07:51;11.45;;;8.57;;
38785;SDS011;24535;45.508;12.252;2023-02-13T16:10:28;12.57;;;8.97;;
38785;SDS011;24535;45.508;12.252;2023-02-13T16:13:00;18.25;;;10.70;;
38785;SDS011;24535;45.508;12.252;2023-02-13T16:15:29;18.05;;;8.85;;
38785;SDS011;24535;45.508;12.252;2023-02-13T16:17:58;10.43;;;8.43;;
38785;SDS011;24535;45.508;12.252;2023-02-13T16:20:24;17.55;;;8.98;;
38785;SDS011;24535;45.508;12.252;2023-02-13T16:23:02;13.90;;;8.13;;
38785;SDS011;24535;45.508;12.252;2023-02-13T16:25:37;9.55;;;7.22;;
38785;SDS011;24535;45.508;12.252;2023-02-13T16:30:51;11.90;;;7.80;;
38785;SDS011;24535;45.508;12.252;2023-02-13T16:36:00;10.35;;;7.97;;
38785;SDS011;24535;45.508;12.252;2023-02-13T16:38:42;8.77;;;6.60;;
38785;SDS011;24535;45.508;12.252;2023-02-13T16:43:48;11.98;;;8.05;;
38785;SDS011;24535;45.508;12.252;2023-02-13T16:46:28;12.95;;;8.23;;
38785;SDS011;24535;45.508;12.252;2023-02-13T16:49:15;12.65;;;8.23;;
38785;SDS011;24535;45.508;12.252;2023-02-13T16:51:51;10.93;;;7.95;;
38785;SDS011;24535;45.508;12.252;2023-02-13T16:57:49;10.43;;;7.25;;
38785;SDS011;24535;45.508;12.252;2023-02-13T17:02:46;17.42;;;9.02;;
38785;SDS011;24535;45.508;12.252;2023-02-13T17:07:50;16.05;;;10.10;;
38785;SDS011;24535;45.508;12.252;2023-02-13T17:13:31;14.05;;;9.55;;
38785;SDS011;24535;45.508;12.252;2023-02-13T17:15:58;17.10;;;9.77;;
38785;SDS011;24535;45.508;12.252;2023-02-13T17:18:24;17.80;;;9.38;;
38785;SDS011;24535;45.508;12.252;2023-02-13T17:20:51;18.80;;;10.75;;
38785;SDS011;24535;45.508;12.252;2023-02-13T17:23:18;20.42;;;11.30;;
38785;SDS011;24535;45.508;12.252;2023-02-13T17:25:46;17.67;;;11.18;;
38785;SDS011;24535;45.508;12.252;2023-02-13T17:28:23;20.35;;;12.15;;
38785;SDS011;24535;45.508;12.252;2023-02-13T17:30:51;26.17;;;13.65;;